sensor_id;sensor_type;location;lat;lon;timestamp;pressure;altitude;pressure_sealevel;temperature;humidity
77452;BME280;66537;52.370;4.832;2023-04-25T00:00:14;101207.56;;;6.10;80.68
77452;BME280;66537;52.370;4.832;2023-04-25T00:02:39;101211.88;;;6.11;80.64
77452;BME280;66537;52.370;4.832;2023-04-25T00:05:05;101206.72;;;6.17;79.96
77452;BME280;66537;52.370;4.832;2023-04-25T00:07:30;101210.13;;;6.14;78.50
77452;BME280;66537;52.370;4.832;2023-04-25T00:09:57;101211.88;;;6.09;78.47
77452;BME280;66537;52.370;4.832;2023-04-25T00:12:22;101208.47;;;6.04;77.96
77452;BME280;66537;52.370;4.832;2023-04-25T00:14:48;101213.59;;;6.09;78.25
77452;BME280;66537;52.370;4.832;2023-04-25T00:17:15;101209.28;;;6.14;77.51
77452;BME280;66537;52.370;4.832;2023-04-25T00:19:41;101208.44;;;6.13;75.67
77452;BME280;66537;52.370;4.832;2023-04-25T00:22:07;101211.78;;;6.21;75.74
77452;BME280;66537;52.370;4.832;2023-04-25T00:24:32;101216.94;;;6.21;75.35
77452;BME280;66537;52.370;4.832;2023-04-25T00:26:57;101221.25;;;6.21;75.18
77452;BME280;66537;52.370;4.832;2023-04-25T00:29:23;101221.25;;;6.21;75.25
77452;BME280;66537;52.370;4.832;2023-04-25T00:31:48;101213.56;;;6.15;74.88
77452;BME280;66537;52.370;4.832;2023-04-25T00:34:13;101225.53;;;6.16;75.29
77452;BME280;66537;52.370;4.832;2023-04-25T00:36:39;101223.78;;;6.19;74.83
77452;BME280;66537;52.370;4.832;2023-04-25T00:39:04;101221.22;;;6.19;74.72
77452;BME280;66537;52.370;4.832;2023-04-25T00:41:30;101222.06;;;6.24;76.60
77452;BME280;66537;52.370;4.832;2023-04-25T00:43:55;101221.19;;;6.34;78.51
77452;BME280;66537;52.370;4.832;2023-04-25T00:46:21;101224.56;;;6.35;78.48
77452;BME280;66537;52.370;4.832;2023-04-25T00:48:47;101222.94;;;6.26;78.01
77452;BME280;66537;52.370;4.832;2023-04-25T00:51:20;101229.81;;;6.23;78.80
77452;BME280;66537;52.370;4.832;2023-04-25T00:53:49;101228.19;;;6.04;78.08
77452;BME280;66537;52.370;4.832;2023-04-25T00:56:15;101222.16;;;6.06;77.06
77452;BME280;66537;52.370;4.832;2023-04-25T00:58:41;101224.72;;;6.05;77.56
77452;BME280;66537;52.370;4.832;2023-04-25T01:01:07;101230.72;;;6.07;78.17
77452;BME280;66537;52.370;4.832;2023-04-25T01:03:34;101224.69;;;6.17;77.90
77452;BME280;66537;52.370;4.832;2023-04-25T01:06:01;101227.25;;;6.18;76.29
77452;BME280;66537;52.370;4.832;2023-04-25T01:08:27;101220.41;;;6.14;76.77
77452;BME280;66537;52.370;4.832;2023-04-25T01:10:52;101227.31;;;5.99;76.92
77452;BME280;66537;52.370;4.832;2023-04-25T01:13:18;101222.22;;;5.91;75.49
77452;BME280;66537;52.370;4.832;2023-04-25T01:15:43;101232.47;;;5.93;75.89
77452;BME280;66537;52.370;4.832;2023-04-25T01:18:09;101233.34;;;5.93;75.10
77452;BME280;66537;52.370;4.832;2023-04-25T01:20:37;101236.78;;;5.86;74.40
77452;BME280;66537;52.370;4.832;2023-04-25T01:23:02;101242.75;;;5.82;75.04
77452;BME280;66537;52.370;4.832;2023-04-25T01:25:28;101243.63;;;5.89;74.77
77452;BME280;66537;52.370;4.832;2023-04-25T01:27:54;101235.06;;;5.90;74.85
77452;BME280;66537;52.370;4.832;2023-04-25T01:30:20;101242.78;;;5.85;76.32
77452;BME280;66537;52.370;4.832;2023-04-25T01:32:46;101248.75;;;5.87;76.71
77452;BME280;66537;52.370;4.832;2023-04-25T01:35:12;101240.19;;;5.97;75.86
77452;BME280;66537;52.370;4.832;2023-04-25T01:37:41;101241.84;;;6.04;76.24
77452;BME280;66537;52.370;4.832;2023-04-25T01:40:09;101242.66;;;6.14;77.31
77452;BME280;66537;52.370;4.832;2023-04-25T01:42:35;101246.09;;;6.14;76.32
77452;BME280;66537;52.370;4.832;2023-04-25T01:45:02;101251.19;;;6.22;76.52
77452;BME280;66537;52.370;4.832;2023-04-25T01:47:27;101249.41;;;6.42;78.13
77452;BME280;66537;52.370;4.832;2023-04-25T01:49:53;101251.16;;;6.32;76.68
77452;BME280;66537;52.370;4.832;2023-04-25T01:52:18;101249.41;;;6.39;76.82
77452;BME280;66537;52.370;4.832;2023-04-25T01:54:44;101251.97;;;6.37;76.99
77452;BME280;66537;52.370;4.832;2023-04-25T01:57:13;101251.06;;;6.45;76.85
77452;BME280;66537;52.370;4.832;2023-04-25T01:59:39;101254.53;;;6.44;76.02
77452;BME280;66537;52.370;4.832;2023-04-25T02:02:04;101252.84;;;6.36;76.42
77452;BME280;66537;52.370;4.832;2023-04-25T02:04:30;101259.69;;;6.41;75.90
77452;BME280;66537;52.370;4.832;2023-04-25T02:06:55;101256.22;;;6.45;75.97
77452;BME280;66537;52.370;4.832;2023-04-25T02:09:21;101262.13;;;6.63;76.70
77452;BME280;66537;52.370;4.832;2023-04-25T02:11:46;101261.25;;;6.64;74.83
77452;BME280;66537;52.370;4.832;2023-04-25T02:14:11;101262.19;;;6.56;73.69
77452;BME280;66537;52.370;4.832;2023-04-25T02:16:37;101264.81;;;6.44;73.29
77452;BME280;66537;52.370;4.832;2023-04-25T02:19:03;101257.97;;;6.38;73.22
77452;BME280;66537;52.370;4.832;2023-04-25T02:21:29;101263.97;;;6.35;72.76
77452;BME280;66537;52.370;4.832;2023-04-25T02:23:55;101269.16;;;6.32;73.49
77452;BME280;66537;52.370;4.832;2023-04-25T02:26:20;101291.50;;;6.15;75.01
77452;BME280;66537;52.370;4.832;2023-04-25T02:28:46;101306.94;;;5.94;77.84
77452;BME280;66537;52.370;4.832;2023-04-25T02:31:11;101315.53;;;5.46;79.16
77452;BME280;66537;52.370;4.832;2023-04-25T02:33:37;101311.25;;;5.14;79.29
77452;BME280;66537;52.370;4.832;2023-04-25T02:36:02;101310.38;;;5.00;79.62
77452;BME280;66537;52.370;4.832;2023-04-25T02:38:28;101317.19;;;4.92;76.33
77452;BME280;66537;52.370;4.832;2023-04-25T02:40:53;101288.09;;;4.75;76.58
77452;BME280;66537;52.370;4.832;2023-04-25T02:43:19;101290.72;;;4.84;80.17
77452;BME280;66537;52.370;4.832;2023-04-25T02:45:45;101273.63;;;5.10;80.76
77452;BME280;66537;52.370;4.832;2023-04-25T02:48:11;101276.19;;;5.02;78.98
77452;BME280;66537;52.370;4.832;2023-04-25T02:50:36;101273.66;;;5.07;80.27
77452;BME280;66537;52.370;4.832;2023-04-25T02:53:01;101277.06;;;5.15;78.60
77452;BME280;66537;52.370;4.832;2023-04-25T02:55:27;101272.78;;;5.27;76.00
77452;BME280;66537;52.370;4.832;2023-04-25T02:57:52;101273.63;;;5.44;77.53
77452;BME280;66537;52.370;4.832;2023-04-25T03:00:20;101276.16;;;5.64;79.41
77452;BME280;66537;52.370;4.832;2023-04-25T03:02:45;101289.03;;;5.49;77.67
77452;BME280;66537;52.370;4.832;2023-04-25T03:05:11;101284.72;;;5.60;77.20
77452;BME280;66537;52.370;4.832;2023-04-25T03:07:36;101288.16;;;5.65;75.67
77452;BME280;66537;52.370;4.832;2023-04-25T03:10:01;101283.03;;;5.47;73.54
77452;BME280;66537;52.370;4.832;2023-04-25T03:12:27;101295.88;;;5.47;73.15
77452;BME280;66537;52.370;4.832;2023-04-25T03:14:52;101289.03;;;5.40;74.38
77452;BME280;66537;52.370;4.832;2023-04-25T03:17:18;101303.56;;;5.38;75.33
77452;BME280;66537;52.370;4.832;2023-04-25T03:19:43;101302.72;;;5.39;75.13
77452;BME280;66537;52.370;4.832;2023-04-25T03:22:08;101303.56;;;5.32;76.71
77452;BME280;66537;52.370;4.832;2023-04-25T03:24:33;101311.28;;;5.39;77.65
77452;BME280;66537;52.370;4.832;2023-04-25T03:27:00;101321.53;;;5.32;76.98
77452;BME280;66537;52.370;4.832;2023-04-25T03:29:25;101321.50;;;5.30;76.86
77452;BME280;66537;52.370;4.832;2023-04-25T03:31:52;101325.81;;;5.24;77.69
77452;BME280;66537;52.370;4.832;2023-04-25T03:34:18;101322.38;;;5.20;77.81
77452;BME280;66537;52.370;4.832;2023-04-25T03:36:43;101317.25;;;5.20;78.60
77452;BME280;66537;52.370;4.832;2023-04-25T03:39:08;101321.53;;;5.18;79.96
77452;BME280;66537;52.370;4.832;2023-04-25T03:41:34;101313.81;;;5.14;79.36
77452;BME280;66537;52.370;4.832;2023-04-25T03:43:59;101319.81;;;5.20;78.80
77452;BME280;66537;52.370;4.832;2023-04-25T03:46:24;101325.78;;;5.01;78.99
77452;BME280;66537;52.370;4.832;2023-04-25T03:48:50;101333.47;;;5.07;79.59
77452;BME280;66537;52.370;4.832;2023-04-25T03:51:15;101328.34;;;5.13;77.56
77452;BME280;66537;52.370;4.832;2023-04-25T03:53:40;101321.50;;;5.12;77.74
77452;BME280;66537;52.370;4.832;2023-04-25T03:56:06;101317.25;;;5.20;78.62
77452;BME280;66537;52.370;4.832;2023-04-25T03:58:31;101317.25;;;5.28;79.31
77452;BME280;66537;52.370;4.832;2023-04-25T04:00:57;101320.63;;;5.07;78.91
77452;BME280;66537;52.370;4.832;2023-04-25T04:03:22;101324.94;;;5.38;79.30
77452;BME280;66537;52.370;4.832;2023-04-25T04:05:47;101332.63;;;5.31;77.98
77452;BME280;66537;52.370;4.832;2023-04-25T04:08:13;101328.34;;;5.33;78.18
77452;BME280;66537;52.370;4.832;2023-04-25T04:10:38;101330.09;;;5.41;77.46
77452;BME280;66537;52.370;4.832;2023-04-25T04:13:03;101325.81;;;5.43;76.61
77452;BME280;66537;52.370;4.832;2023-04-25T04:15:29;101334.34;;;5.53;77.22
77452;BME280;66537;52.370;4.832;2023-04-25T04:17:54;101329.19;;;5.70;77.72
77452;BME280;66537;52.370;4.832;2023-04-25T04:20:20;101338.63;;;5.78;75.79
77452;BME280;66537;52.370;4.832;2023-04-25T04:22:45;101341.16;;;5.75;74.52
77452;BME280;66537;52.370;4.832;2023-04-25T04:25:10;101341.19;;;5.80;75.67
77452;BME280;66537;52.370;4.832;2023-04-25T04:27:37;101333.47;;;5.96;76.00
77452;BME280;66537;52.370;4.832;2023-04-25T04:30:03;101348.06;;;5.84;74.19
77452;BME280;66537;52.370;4.832;2023-04-25T04:32:28;101342.91;;;5.88;74.87
77452;BME280;66537;52.370;4.832;2023-04-25T04:34:55;101333.47;;;5.78;75.86
77452;BME280;66537;52.370;4.832;2023-04-25T04:37:20;101338.63;;;5.86;77.19
77452;BME280;66537;52.370;4.832;2023-04-25T04:39:47;101348.91;;;5.90;77.40
77452;BME280;66537;52.370;4.832;2023-04-25T04:42:12;101341.19;;;5.95;75.96
77452;BME280;66537;52.370;4.832;2023-04-25T04:44:38;101340.31;;;6.03;76.16
77452;BME280;66537;52.370;4.832;2023-04-25T04:47:04;101352.28;;;6.13;76.24
77452;BME280;66537;52.370;4.832;2023-04-25T04:49:31;101351.38;;;6.23;76.58
77452;BME280;66537;52.370;4.832;2023-04-25T04:51:56;101349.66;;;6.25;76.11
77452;BME280;66537;52.370;4.832;2023-04-25T04:54:22;101359.00;;;6.45;77.13
77452;BME280;66537;52.370;4.832;2023-04-25T04:56:47;101359.91;;;6.33;76.09
77452;BME280;66537;52.370;4.832;2023-04-25T04:59:12;101359.97;;;6.27;74.91
77452;BME280;66537;52.370;4.832;2023-04-25T05:01:38;101363.34;;;6.33;75.56
77452;BME280;66537;52.370;4.832;2023-04-25T05:04:03;101359.03;;;6.37;75.15
77452;BME280;66537;52.370;4.832;2023-04-25T05:06:29;101364.16;;;6.54;75.17
77452;BME280;66537;52.370;4.832;2023-04-25T05:08:55;101371.78;;;6.70;75.67
77452;BME280;66537;52.370;4.832;2023-04-25T05:11:22;101369.22;;;6.73;76.31
77452;BME280;66537;52.370;4.832;2023-04-25T05:13:52;101378.69;;;6.64;76.00
77452;BME280;66537;52.370;4.832;2023-04-25T05:16:17;101379.56;;;6.55;75.43
77452;BME280;66537;52.370;4.832;2023-04-25T05:18:43;101379.63;;;6.31;75.67
77452;BME280;66537;52.370;4.832;2023-04-25T05:21:08;101385.63;;;6.28;74.88
77452;BME280;66537;52.370;4.832;2023-04-25T05:23:34;101389.84;;;6.54;76.46
77452;BME280;66537;52.370;4.832;2023-04-25T05:25:59;101392.50;;;6.22;75.38
77452;BME280;66537;52.370;4.832;2023-04-25T05:28:25;101397.66;;;6.14;74.12
77452;BME280;66537;52.370;4.832;2023-04-25T05:30:50;101397.63;;;6.16;74.63
77452;BME280;66537;52.370;4.832;2023-04-25T05:33:16;101403.63;;;6.24;76.13
77452;BME280;66537;52.370;4.832;2023-04-25T05:35:41;101396.72;;;6.41;75.97
77452;BME280;66537;52.370;4.832;2023-04-25T05:38:07;101401.84;;;6.53;74.37
77452;BME280;66537;52.370;4.832;2023-04-25T05:40:32;101400.97;;;6.56;73.66
77452;BME280;66537;52.370;4.832;2023-04-25T05:42:57;101411.22;;;6.68;72.91
77452;BME280;66537;52.370;4.832;2023-04-25T05:45:23;101417.19;;;6.74;72.79
77452;BME280;66537;52.370;4.832;2023-04-25T05:47:48;101416.16;;;7.11;72.23
77452;BME280;66537;52.370;4.832;2023-04-25T05:50:13;101416.94;;;7.24;71.74
77452;BME280;66537;52.370;4.832;2023-04-25T05:52:39;101420.13;;;7.61;71.56
77452;BME280;66537;52.370;4.832;2023-04-25T05:55:05;101430.28;;;7.82;69.40
77452;BME280;66537;52.370;4.832;2023-04-25T05:57:30;101428.59;;;7.78;68.80
77452;BME280;66537;52.370;4.832;2023-04-25T05:59:56;101428.56;;;7.81;70.43
77452;BME280;66537;52.370;4.832;2023-04-25T06:02:21;101426.66;;;7.99;69.87
77452;BME280;66537;52.370;4.832;2023-04-25T06:04:49;101430.09;;;8.01;69.31
77452;BME280;66537;52.370;4.832;2023-04-25T06:07:15;101436.22;;;7.88;69.11
77452;BME280;66537;52.370;4.832;2023-04-25T06:09:40;101440.69;;;7.68;68.94
77452;BME280;66537;52.370;4.832;2023-04-25T06:12:06;101439.03;;;7.58;69.83
77452;BME280;66537;52.370;4.832;2023-04-25T06:14:33;101451.00;;;7.65;68.72
77452;BME280;66537;52.370;4.832;2023-04-25T06:16:58;101448.22;;;7.91;69.07
77452;BME280;66537;52.370;4.832;2023-04-25T06:19:24;101455.19;;;7.81;68.43
77452;BME280;66537;52.370;4.832;2023-04-25T06:21:49;101456.22;;;7.52;69.01
77452;BME280;66537;52.370;4.832;2023-04-25T06:24:14;101465.81;;;7.28;67.55
77452;BME280;66537;52.370;4.832;2023-04-25T06:26:40;101472.78;;;7.10;66.00
77452;BME280;66537;52.370;4.832;2023-04-25T06:29:05;101483.09;;;6.98;67.25
77452;BME280;66537;52.370;4.832;2023-04-25T06:31:30;101494.41;;;6.50;68.62
77452;BME280;66537;52.370;4.832;2023-04-25T06:33:58;101477.28;;;6.13;70.02
77452;BME280;66537;52.370;4.832;2023-04-25T06:36:23;101474.72;;;5.84;68.67
77452;BME280;66537;52.370;4.832;2023-04-25T06:38:53;101476.44;;;6.09;68.98
77452;BME280;66537;52.370;4.832;2023-04-25T06:41:19;101474.72;;;6.20;68.81
77452;BME280;66537;52.370;4.832;2023-04-25T06:43:45;101473.84;;;6.21;65.69
77452;BME280;66537;52.370;4.832;2023-04-25T06:46:11;101479.78;;;6.63;68.60
77452;BME280;66537;52.370;4.832;2023-04-25T06:48:36;101478.94;;;6.58;65.22
77452;BME280;66537;52.370;4.832;2023-04-25T06:51:01;101487.47;;;6.69;66.41
77452;BME280;66537;52.370;4.832;2023-04-25T06:53:27;101490.84;;;6.93;65.67
77452;BME280;66537;52.370;4.832;2023-04-25T06:55:52;101494.31;;;6.85;64.46
77452;BME280;66537;52.370;4.832;2023-04-25T06:58:18;101490.97;;;8.13;63.05
77452;BME280;66537;52.370;4.832;2023-04-25T07:00:43;101482.94;;;9.25;59.61
77452;BME280;66537;52.370;4.832;2023-04-25T07:03:09;101492.19;;;9.97;57.04
77452;BME280;66537;52.370;4.832;2023-04-25T07:05:34;101490.59;;;10.44;55.51
77452;BME280;66537;52.370;4.832;2023-04-25T07:08:00;101494.25;;;9.77;56.28
77452;BME280;66537;52.370;4.832;2023-04-25T07:10:25;101488.09;;;9.27;58.65
77452;BME280;66537;52.370;4.832;2023-04-25T07:12:51;101493.84;;;9.45;59.18
77452;BME280;66537;52.370;4.832;2023-04-25T07:15:16;101500.03;;;8.61;60.47
77452;BME280;66537;52.370;4.832;2023-04-25T07:17:41;101503.47;;;8.60;60.54
77452;BME280;66537;52.370;4.832;2023-04-25T07:20:07;101506.00;;;9.37;58.31
77452;BME280;66537;52.370;4.832;2023-04-25T07:22:34;101519.22;;;9.13;56.95
77452;BME280;66537;52.370;4.832;2023-04-25T07:24:59;101513.22;;;9.11;58.14
77452;BME280;66537;52.370;4.832;2023-04-25T07:27:25;101511.25;;;9.33;57.91
77452;BME280;66537;52.370;4.832;2023-04-25T07:29:50;101503.63;;;11.28;55.56
77452;BME280;66537;52.370;4.832;2023-04-25T07:32:15;101509.91;;;12.29;51.78
77452;BME280;66537;52.370;4.832;2023-04-25T07:34:41;101517.19;;;12.15;51.28
77452;BME280;66537;52.370;4.832;2023-04-25T07:37:09;101514.34;;;12.59;50.13
77452;BME280;66537;52.370;4.832;2023-04-25T07:39:35;101505.34;;;14.43;48.35
77452;BME280;66537;52.370;4.832;2023-04-25T07:42:02;101518.72;;;12.57;48.86
77452;BME280;66537;52.370;4.832;2023-04-25T07:44:29;101528.22;;;12.89;50.94
77452;BME280;66537;52.370;4.832;2023-04-25T07:46:55;101531.41;;;11.59;51.79
77452;BME280;66537;52.370;4.832;2023-04-25T07:49:21;101522.72;;;11.22;53.83
77452;BME280;66537;52.370;4.832;2023-04-25T07:51:46;101531.19;;;12.76;52.31
77452;BME280;66537;52.370;4.832;2023-04-25T07:54:16;101534.72;;;13.93;51.76
77452;BME280;66537;52.370;4.832;2023-04-25T07:56:42;101533.84;;;14.20;49.27
77452;BME280;66537;52.370;4.832;2023-04-25T07:59:07;101538.03;;;14.76;47.69
77452;BME280;66537;52.370;4.832;2023-04-25T08:01:33;101550.25;;;14.50;48.61
77452;BME280;66537;52.370;4.832;2023-04-25T08:03:59;101538.25;;;15.41;47.07
77452;BME280;66537;52.370;4.832;2023-04-25T08:06:24;101533.47;;;15.54;46.89
77452;BME280;66537;52.370;4.832;2023-04-25T08:08:50;101538.13;;;14.22;49.33
77452;BME280;66537;52.370;4.832;2023-04-25T08:11:16;101551.19;;;13.36;50.85
77452;BME280;66537;52.370;4.832;2023-04-25T08:13:41;101561.13;;;11.45;50.50
77452;BME280;66537;52.370;4.832;2023-04-25T08:16:06;101572.88;;;10.21;51.64
77452;BME280;66537;52.370;4.832;2023-04-25T08:18:32;101563.81;;;11.39;50.41
77452;BME280;66537;52.370;4.832;2023-04-25T08:20:57;101566.25;;;13.82;46.63
77452;BME280;66537;52.370;4.832;2023-04-25T08:23:23;101563.84;;;13.18;44.50
77452;BME280;66537;52.370;4.832;2023-04-25T08:25:48;101574.31;;;11.75;45.69
77452;BME280;66537;52.370;4.832;2023-04-25T08:28:14;101577.22;;;11.99;46.74
77452;BME280;66537;52.370;4.832;2023-04-25T08:30:40;101577.88;;;12.79;46.84
77452;BME280;66537;52.370;4.832;2023-04-25T08:33:05;101584.63;;;11.34;49.00
77452;BME280;66537;52.370;4.832;2023-04-25T08:35:31;101601.59;;;9.31;56.75
77452;BME280;66537;52.370;4.832;2023-04-25T08:37:58;101601.81;;;9.15;58.17
77452;BME280;66537;52.370;4.832;2023-04-25T08:40:26;101614.16;;;8.85;58.77
77452;BME280;66537;52.370;4.832;2023-04-25T08:42:56;101617.59;;;8.83;59.85
77452;BME280;66537;52.370;4.832;2023-04-25T08:45:22;101626.28;;;8.74;58.83
77452;BME280;66537;52.370;4.832;2023-04-25T08:47:51;101620.66;;;8.26;60.58
77452;BME280;66537;52.370;4.832;2023-04-25T08:50:17;101618.88;;;8.35;61.28
77452;BME280;66537;52.370;4.832;2023-04-25T08:52:44;101627.16;;;8.72;60.35
77452;BME280;66537;52.370;4.832;2023-04-25T08:55:15;101630.75;;;8.54;55.56
77452;BME280;66537;52.370;4.832;2023-04-25T08:57:41;101632.47;;;8.52;55.96
77452;BME280;66537;52.370;4.832;2023-04-25T09:00:12;101633.03;;;8.89;53.79
77452;BME280;66537;52.370;4.832;2023-04-25T09:02:39;101637.03;;;9.20;54.05
77452;BME280;66537;52.370;4.832;2023-04-25T09:05:05;101643.75;;;9.33;52.56
77452;BME280;66537;52.370;4.832;2023-04-25T09:07:32;101660.16;;;9.29;52.21
77452;BME280;66537;52.370;4.832;2023-04-25T09:09:58;101655.75;;;9.40;52.68
77452;BME280;66537;52.370;4.832;2023-04-25T09:12:28;101663.50;;;10.09;51.95
77452;BME280;66537;52.370;4.832;2023-04-25T09:15:08;101665.59;;;10.46;50.53
77452;BME280;66537;52.370;4.832;2023-04-25T09:17:34;101669.13;;;10.41;49.66
77452;BME280;66537;52.370;4.832;2023-04-25T09:20:11;101665.25;;;10.08;48.45
77452;BME280;66537;52.370;4.832;2023-04-25T09:22:38;101659.13;;;10.73;47.48
77452;BME280;66537;52.370;4.832;2023-04-25T09:25:10;101663.09;;;11.41;48.68
77452;BME280;66537;52.370;4.832;2023-04-25T09:27:36;101663.28;;;12.54;45.88
77452;BME280;66537;52.370;4.832;2023-04-25T09:30:02;101659.06;;;12.85;43.90
77452;BME280;66537;52.370;4.832;2023-04-25T09:32:28;101658.56;;;13.05;43.68
77452;BME280;66537;52.370;4.832;2023-04-25T09:34:57;101660.53;;;13.90;43.64
77452;BME280;66537;52.370;4.832;2023-04-25T09:37:27;101662.34;;;14.16;43.35
77452;BME280;66537;52.370;4.832;2023-04-25T09:39:58;101669.97;;;14.77;42.29
77452;BME280;66537;52.370;4.832;2023-04-25T09:42:26;101665.47;;;14.82;41.24
77452;BME280;66537;52.370;4.832;2023-04-25T09:44:54;101673.81;;;14.67;42.98
77452;BME280;66537;52.370;4.832;2023-04-25T09:47:22;101676.31;;;14.13;43.54
77452;BME280;66537;52.370;4.832;2023-04-25T09:49:49;101665.25;;;12.43;46.35
77452;BME280;66537;52.370;4.832;2023-04-25T09:52:16;101686.22;;;11.96;48.72
77452;BME280;66537;52.370;4.832;2023-04-25T09:54:43;101686.22;;;10.51;48.56
77452;BME280;66537;52.370;4.832;2023-04-25T09:59:41;101697.28;;;10.59;51.92
77452;BME280;66537;52.370;4.832;2023-04-25T10:02:08;101699.25;;;10.45;52.92
77452;BME280;66537;52.370;4.832;2023-04-25T10:04:35;101711.47;;;9.64;50.22
77452;BME280;66537;52.370;4.832;2023-04-25T10:07:03;101714.81;;;8.82;52.06
77452;BME280;66537;52.370;4.832;2023-04-25T10:09:31;101719.72;;;9.11;53.48
77452;BME280;66537;52.370;4.832;2023-04-25T10:11:59;101716.34;;;10.53;51.53
77452;BME280;66537;52.370;4.832;2023-04-25T10:14:25;101720.56;;;12.07;50.05
77452;BME280;66537;52.370;4.832;2023-04-25T10:16:51;101720.81;;;11.95;51.01
77452;BME280;66537;52.370;4.832;2023-04-25T10:19:19;101721.84;;;13.37;48.86
77452;BME280;66537;52.370;4.832;2023-04-25T10:21:54;101715.91;;;13.94;47.45
77452;BME280;66537;52.370;4.832;2023-04-25T10:24:20;101718.72;;;14.46;47.12
77452;BME280;66537;52.370;4.832;2023-04-25T10:26:47;101714.78;;;14.88;46.52
77452;BME280;66537;52.370;4.832;2023-04-25T10:29:21;101718.91;;;15.46;45.08
77452;BME280;66537;52.370;4.832;2023-04-25T10:31:47;101720.44;;;13.87;46.39
77452;BME280;66537;52.370;4.832;2023-04-25T10:34:13;101719.63;;;12.87;49.06
77452;BME280;66537;52.370;4.832;2023-04-25T10:36:38;101714.88;;;12.31;50.28
77452;BME280;66537;52.370;4.832;2023-04-25T10:39:05;101716.75;;;12.61;48.30
77452;BME280;66537;52.370;4.832;2023-04-25T10:41:48;101722.41;;;13.48;46.57
77452;BME280;66537;52.370;4.832;2023-04-25T10:44:16;101719.34;;;14.54;46.91
77452;BME280;66537;52.370;4.832;2023-04-25T10:46:44;101739.09;;;13.06;49.39
77452;BME280;66537;52.370;4.832;2023-04-25T10:49:09;101746.09;;;10.83;56.93
77452;BME280;66537;52.370;4.832;2023-04-25T10:51:36;101759.75;;;9.54;57.47
77452;BME280;66537;52.370;4.832;2023-04-25T10:54:04;101748.94;;;9.16;57.86
77452;BME280;66537;52.370;4.832;2023-04-25T10:59:10;101753.00;;;9.41;60.51
77452;BME280;66537;52.370;4.832;2023-04-25T11:01:41;101746.94;;;9.45;59.29
77452;BME280;66537;52.370;4.832;2023-04-25T11:04:19;101752.53;;;9.00;61.43
77452;BME280;66537;52.370;4.832;2023-04-25T11:09:29;101753.78;;;8.37;62.15
77452;BME280;66537;52.370;4.832;2023-04-25T11:11:56;101759.28;;;9.13;61.67
77452;BME280;66537;52.370;4.832;2023-04-25T11:14:22;101754.53;;;10.39;57.42
77452;BME280;66537;52.370;4.832;2023-04-25T11:16:53;101754.44;;;11.02;53.57
77452;BME280;66537;52.370;4.832;2023-04-25T11:19:19;101752.75;;;10.98;53.11
77452;BME280;66537;52.370;4.832;2023-04-25T11:21:45;101744.81;;;11.10;50.36
77452;BME280;66537;52.370;4.832;2023-04-25T11:24:11;101755.06;;;11.16;50.01
77452;BME280;66537;52.370;4.832;2023-04-25T11:26:36;101750.66;;;11.72;49.10
77452;BME280;66537;52.370;4.832;2023-04-25T11:29:02;101737.97;;;12.41;47.66
77452;BME280;66537;52.370;4.832;2023-04-25T11:31:29;101739.38;;;12.16;50.64
77452;BME280;66537;52.370;4.832;2023-04-25T11:33:56;101746.94;;;11.86;49.09
77452;BME280;66537;52.370;4.832;2023-04-25T11:36:25;101744.97;;;11.51;49.10
77452;BME280;66537;52.370;4.832;2023-04-25T11:38:52;101746.75;;;11.46;49.59
77452;BME280;66537;52.370;4.832;2023-04-25T11:41:19;101746.50;;;11.61;49.89
77452;BME280;66537;52.370;4.832;2023-04-25T11:43:44;101747.38;;;11.13;51.82
77452;BME280;66537;52.370;4.832;2023-04-25T11:46:09;101752.97;;;10.84;53.51
77452;BME280;66537;52.370;4.832;2023-04-25T11:48:41;101769.03;;;10.48;52.53
77452;BME280;66537;52.370;4.832;2023-04-25T11:51:07;101761.31;;;9.70;54.09
77452;BME280;66537;52.370;4.832;2023-04-25T11:53:33;101768.84;;;9.94;54.50
77452;BME280;66537;52.370;4.832;2023-04-25T11:55:59;101762.69;;;10.03;54.08
77452;BME280;66537;52.370;4.832;2023-04-25T11:58:25;101768.28;;;9.65;52.66
77452;BME280;66537;52.370;4.832;2023-04-25T12:00:51;101772.75;;;9.47;51.86
77452;BME280;66537;52.370;4.832;2023-04-25T12:03:17;101768.63;;;10.14;51.80
77452;BME280;66537;52.370;4.832;2023-04-25T12:05:45;101785.13;;;9.99;50.42
77452;BME280;66537;52.370;4.832;2023-04-25T12:08:14;101781.00;;;9.83;50.33
77452;BME280;66537;52.370;4.832;2023-04-25T12:10:40;101788.97;;;9.64;49.62
77452;BME280;66537;52.370;4.832;2023-04-25T12:15:47;101776.66;;;10.58;49.24
77452;BME280;66537;52.370;4.832;2023-04-25T12:18:13;101778.03;;;10.82;48.59
77452;BME280;66537;52.370;4.832;2023-04-25T12:20:38;101789.47;;;10.67;49.84
77452;BME280;66537;52.370;4.832;2023-04-25T12:23:05;101785.91;;;10.74;49.83
77452;BME280;66537;52.370;4.832;2023-04-25T12:25:39;101791.72;;;10.92;49.97
77452;BME280;66537;52.370;4.832;2023-04-25T12:28:17;101789.66;;;10.54;50.28
77452;BME280;66537;52.370;4.832;2023-04-25T12:33:24;101789.19;;;10.25;46.96
77452;BME280;66537;52.370;4.832;2023-04-25T12:35:50;101798.38;;;10.47;48.83
77452;BME280;66537;52.370;4.832;2023-04-25T12:38:25;101786.09;;;10.62;48.75
77452;BME280;66537;52.370;4.832;2023-04-25T12:40:52;101796.81;;;10.35;48.88
77452;BME280;66537;52.370;4.832;2023-04-25T12:43:17;101793.66;;;10.12;49.52
77452;BME280;66537;52.370;4.832;2023-04-25T12:45:44;101796.63;;;9.70;51.30
77452;BME280;66537;52.370;4.832;2023-04-25T12:48:10;101795.78;;;9.68;52.11
77452;BME280;66537;52.370;4.832;2023-04-25T12:50:35;101798.19;;;9.86;50.82
77452;BME280;66537;52.370;4.832;2023-04-25T12:53:00;101786.84;;;10.00;51.66
77452;BME280;66537;52.370;4.832;2023-04-25T12:55:26;101795.44;;;10.04;52.22
77452;BME280;66537;52.370;4.832;2023-04-25T12:57:51;101786.03;;;9.98;52.64
77452;BME280;66537;52.370;4.832;2023-04-25T13:00:17;101794.88;;;10.51;52.89
77452;BME280;66537;52.370;4.832;2023-04-25T13:02:44;101798.31;;;10.53;51.94
77452;BME280;66537;52.370;4.832;2023-04-25T13:05:11;101808.25;;;10.16;52.19